Flight Track Log - Related Links

Times and Time Zones

All times are in EDT time to prevent confusion due to time zone crossing. See the ASQ4406 flight status page for this flight to view local times or setup timezone preferences in your user account.

Time Position Orientation Groundspeed Altitude Reporting Facility
EDT Latitude Longitude Course Direction KTS MPH feet Rate Location/Type
Mon 07:12:12 PM 29.9614 -95.3411 206° Southwest 165 190 700  Level Houston Center
Mon 07:12:48 PM 29.9403 -95.3172 136° Southeast 179 206 1,900 1,624 Climbing Houston Center
Mon 07:13:37 PM 29.9153 -95.2814 129° Southeast 224 258 3,000 2,378 Climbing Houston Center
Mon 07:14:39 PM 29.8572 -95.2133 135° Southeast 246 283 6,300 2,710 Climbing Houston Center
Mon 07:15:00 PM 29.6661 -95.5087 209° Southwest  Level FlightAware Approximate
Mon 07:15:41 PM 29.7872 -95.1883 163° South 264 304 8,600  Level Houston Center
Mon 07:16:00 PM 29.5885 -95.5564 206° Southwest  Level FlightAware Approximate
Mon 07:16:43 PM 29.7233 -95.2333 211° Southwest 277 319 10,800  Level Houston Center
Mon 07:17:00 PM 29.5093 -95.6004 206° Southwest  Level FlightAware Approximate
Mon 07:17:44 PM 29.6608 -95.2989 222° Southwest 314 361 11,500  Level Houston Center
Mon 07:18:46 PM 29.5919 -95.3722 223° Southwest 340 391 12,900 1,548 Climbing Houston Center
Mon 07:19:48 PM 29.5072 -95.4625 223° Southwest 347 399 14,700 1,645 Climbing Houston Center
Mon 07:20:50 PM 29.4394 -95.5431 226° Southwest 352 405 16,300 1,452 Climbing Houston Center
Mon 07:21:52 PM 29.3703 -95.6239 226° Southwest 355 409 17,700 1,355 Climbing Houston Center
Mon 07:22:54 PM 29.3003 -95.7033 225° Southwest 356 410 19,100 1,403 Climbing Houston Center
Mon 07:23:56 PM 29.2306 -95.7836 225° Southwest 355 409 20,600 1,268 Climbing Houston Center
Mon 07:24:57 PM 29.1622 -95.8644 226° Southwest 356 410 21,700 683 Climbing Houston Center
Mon 07:25:59 PM 29.0739 -95.9669 225° Southwest 378 435 22,000 145 Climbing Houston Center
Mon 07:27:01 PM 29.0031 -96.0467 225° Southwest 398 458 22,000 -48 Level Houston Center
Mon 07:28:03 PM 28.9225 -96.1408 226° Southwest 411 473 21,900  Descending Houston Center
Mon 07:29:05 PM 28.8278 -96.2483 225° Southwest 400 460 22,000 48 Climbing Houston Center
Mon 07:30:07 PM 28.7472 -96.3403 225° Southwest 405 466 22,000 -145 Level Houston Center
Mon 07:31:09 PM 28.6667 -96.4336 225° Southwest 411 473 21,700 -1,122 Descending Houston Center
Mon 07:32:10 PM 28.5875 -96.5244 225° Southwest 406 467 19,700 -1,951 Descending Houston Center
Mon 07:33:12 PM 28.5092 -96.6125 225° Southwest 399 459 17,700 -1,839 Descending Houston Center
Mon 07:34:14 PM 28.4319 -96.7019 226° Southwest 396 456 15,900 -1,966 Descending Houston Center
Mon 07:35:08 PM 28.3556 -96.7869 224° Southwest 391 450 13,900 -2,188 Descending Houston Center
Mon 07:35:39 PM 28.3125 -96.8361 225° Southwest 388 447 12,800 -1,629 Descending Houston Center
Mon 07:36:18 PM 28.2797 -96.8744 226° Southwest 386 444 12,000 -1,082 Descending Houston Center
Mon 07:36:40 PM 28.2489 -96.9261 236° Southwest 373 429 11,700 -689 Descending Houston Center
Mon 07:37:19 PM 28.2081 -96.9889 234° Southwest 370 426 11,300 -600 Descending Houston Center
Mon 07:37:40 PM 28.1864 -97.0253 236° Southwest 368 423 11,100 -484 Descending Houston Center
Mon 07:38:21 PM 28.1494 -97.0850 235° Southwest 370 426 10,800 -492 Descending Houston Center
Mon 07:38:41 PM 28.1311 -97.1139 234° Southwest 361 415 10,600 -581 Descending Houston Center
Mon 07:39:23 PM 28.0989 -97.1664 235° Southwest 326 375 10,200 -885 Descending Houston Center
Mon 07:39:42 PM 28.0808 -97.1922 232° Southwest 273 314 9,700 -1,742 Descending Houston Center
Mon 07:40:25 PM 28.0531 -97.2367 235° Southwest 287 330 8,400 -1,967 Descending Houston Center
Mon 07:40:43 PM 28.0344 -97.2675 236° Southwest 274 315 7,700 -1,770 Descending Houston Center
Mon 07:41:26 PM 28.0072 -97.3089 233° Southwest 283 326 6,600 -1,770 Descending Houston Center
Mon 07:41:44 PM 27.9911 -97.3350 235° Southwest 278 320 5,900 -1,839 Descending Houston Center
Mon 07:42:28 PM 27.9636 -97.3786 234° Southwest 276 318 4,700 -1,900 Descending Houston Center
Mon 07:42:44 PM 27.9444 -97.4081 234° Southwest 270 311 4,000 -677 Descending Houston Center
Mon 07:43:30 PM 27.9194 -97.4500 236° Southwest 274 315 4,000 -1,574 Level Houston Center
Mon 07:43:45 PM 27.9031 -97.4728 231° Southwest 265 305 2,400 -1,579 Descending Houston Center
Mon 07:44:46 PM 27.8636 -97.5353 234° Southwest 224 258 2,000 -393 Descending Houston Center

Login

Don't have an account? Register now (free) for customized features, flight alerts, and more!